sensor_id;sensor_type;location;lat;lon;timestamp;P1;durP1;ratioP1;P2;durP2;ratioP2
64789;SDS011;51223;51.816;5.862;2022-11-15T00:00:46;7.50;;;3.72;;
64789;SDS011;51223;51.816;5.862;2022-11-15T00:03:19;8.50;;;4.25;;
64789;SDS011;51223;51.816;5.862;2022-11-15T00:05:46;14.15;;;4.80;;
64789;SDS011;51223;51.816;5.862;2022-11-15T00:08:13;8.35;;;4.72;;
64789;SDS011;51223;51.816;5.862;2022-11-15T00:10:39;6.80;;;4.22;;
64789;SDS011;51223;51.816;5.862;2022-11-15T00:13:06;12.88;;;4.00;;
64789;SDS011;51223;51.816;5.862;2022-11-15T00:15:36;10.52;;;4.60;;
64789;SDS011;51223;51.816;5.862;2022-11-15T00:18:03;13.65;;;4.43;;
64789;SDS011;51223;51.816;5.862;2022-11-15T00:20:30;4.30;;;2.90;;
64789;SDS011;51223;51.816;5.862;2022-11-15T00:22:56;9.05;;;3.88;;
64789;SDS011;51223;51.816;5.862;2022-11-15T00:25:22;9.50;;;5.07;;
64789;SDS011;51223;51.816;5.862;2022-11-15T00:27:48;7.88;;;3.83;;
64789;SDS011;51223;51.816;5.862;2022-11-15T00:30:13;11.05;;;4.53;;
64789;SDS011;51223;51.816;5.862;2022-11-15T00:32:39;9.18;;;4.60;;
64789;SDS011;51223;51.816;5.862;2022-11-15T00:35:05;7.47;;;4.65;;
64789;SDS011;51223;51.816;5.862;2022-11-15T00:37:31;5.00;;;3.60;;
64789;SDS011;51223;51.816;5.862;2022-11-15T00:39:57;4.70;;;2.88;;
64789;SDS011;51223;51.816;5.862;2022-11-15T00:42:23;5.90;;;3.28;;
64789;SDS011;51223;51.816;5.862;2022-11-15T00:44:51;9.48;;;4.15;;
64789;SDS011;51223;51.816;5.862;2022-11-15T00:47:17;3.83;;;3.00;;
64789;SDS011;51223;51.816;5.862;2022-11-15T00:49:43;4.47;;;2.72;;
64789;SDS011;51223;51.816;5.862;2022-11-15T00:52:08;7.47;;;4.20;;
64789;SDS011;51223;51.816;5.862;2022-11-15T00:54:34;7.82;;;4.25;;
64789;SDS011;51223;51.816;5.862;2022-11-15T00:57:00;3.95;;;2.88;;
64789;SDS011;51223;51.816;5.862;2022-11-15T00:59:26;7.90;;;4.15;;
64789;SDS011;51223;51.816;5.862;2022-11-15T01:01:52;6.13;;;3.97;;
64789;SDS011;51223;51.816;5.862;2022-11-15T01:04:17;6.10;;;4.03;;
64789;SDS011;51223;51.816;5.862;2022-11-15T01:06:43;7.43;;;4.38;;
64789;SDS011;51223;51.816;5.862;2022-11-15T01:09:09;11.25;;;3.80;;
64789;SDS011;51223;51.816;5.862;2022-11-15T01:11:35;7.20;;;3.22;;
64789;SDS011;51223;51.816;5.862;2022-11-15T01:14:01;7.43;;;3.90;;
64789;SDS011;51223;51.816;5.862;2022-11-15T01:16:26;4.97;;;3.22;;
64789;SDS011;51223;51.816;5.862;2022-11-15T01:18:52;4.88;;;3.75;;
64789;SDS011;51223;51.816;5.862;2022-11-15T01:21:18;5.00;;;3.67;;
64789;SDS011;51223;51.816;5.862;2022-11-15T01:23:44;3.47;;;2.58;;
64789;SDS011;51223;51.816;5.862;2022-11-15T01:26:12;6.22;;;4.18;;
64789;SDS011;51223;51.816;5.862;2022-11-15T01:28:40;3.80;;;3.08;;
64789;SDS011;51223;51.816;5.862;2022-11-15T01:31:09;6.50;;;3.47;;
64789;SDS011;51223;51.816;5.862;2022-11-15T01:33:38;5.07;;;2.63;;
64789;SDS011;51223;51.816;5.862;2022-11-15T01:36:04;7.10;;;3.85;;
64789;SDS011;51223;51.816;5.862;2022-11-15T01:38:35;4.20;;;3.38;;
64789;SDS011;51223;51.816;5.862;2022-11-15T01:41:01;11.40;;;3.30;;
64789;SDS011;51223;51.816;5.862;2022-11-15T01:43:35;6.50;;;3.60;;
64789;SDS011;51223;51.816;5.862;2022-11-15T01:46:04;9.90;;;2.40;;
64789;SDS011;51223;51.816;5.862;2022-11-15T01:48:38;6.85;;;4.43;;
64789;SDS011;51223;51.816;5.862;2022-11-15T01:51:05;6.47;;;3.33;;
64789;SDS011;51223;51.816;5.862;2022-11-15T01:53:33;5.78;;;3.90;;
64789;SDS011;51223;51.816;5.862;2022-11-15T01:56:02;6.13;;;4.03;;
64789;SDS011;51223;51.816;5.862;2022-11-15T01:58:31;4.68;;;2.10;;
64789;SDS011;51223;51.816;5.862;2022-11-15T02:00:57;8.15;;;3.90;;
64789;SDS011;51223;51.816;5.862;2022-11-15T02:03:25;4.28;;;3.28;;
64789;SDS011;51223;51.816;5.862;2022-11-15T02:05:59;5.32;;;3.30;;
64789;SDS011;51223;51.816;5.862;2022-11-15T02:08:25;5.70;;;3.13;;
64789;SDS011;51223;51.816;5.862;2022-11-15T02:10:51;7.05;;;3.50;;
64789;SDS011;51223;51.816;5.862;2022-11-15T02:13:17;4.38;;;3.10;;
64789;SDS011;51223;51.816;5.862;2022-11-15T02:18:48;4.85;;;3.25;;
64789;SDS011;51223;51.816;5.862;2022-11-15T02:21:32;8.48;;;3.72;;
64789;SDS011;51223;51.816;5.862;2022-11-15T02:32:50;5.57;;;2.90;;
64789;SDS011;51223;51.816;5.862;2022-11-15T02:38:27;9.50;;;4.35;;
64789;SDS011;51223;51.816;5.862;2022-11-15T02:41:02;5.97;;;3.60;;
64789;SDS011;51223;51.816;5.862;2022-11-15T02:46:32;5.85;;;3.83;;
64789;SDS011;51223;51.816;5.862;2022-11-15T02:49:21;5.28;;;3.45;;
64789;SDS011;51223;51.816;5.862;2022-11-15T02:51:48;8.18;;;2.88;;
64789;SDS011;51223;51.816;5.862;2022-11-15T02:54:26;5.07;;;3.00;;
64789;SDS011;51223;51.816;5.862;2022-11-15T02:57:00;4.53;;;3.30;;
64789;SDS011;51223;51.816;5.862;2022-11-15T02:59:33;7.88;;;4.00;;
64789;SDS011;51223;51.816;5.862;2022-11-15T03:04:43;6.35;;;3.72;;
64789;SDS011;51223;51.816;5.862;2022-11-15T03:07:25;7.03;;;4.18;;
64789;SDS011;51223;51.816;5.862;2022-11-15T03:13:08;4.10;;;2.67;;
64789;SDS011;51223;51.816;5.862;2022-11-15T03:15:57;6.78;;;3.22;;
64789;SDS011;51223;51.816;5.862;2022-11-15T03:18:30;2.28;;;1.98;;
64789;SDS011;51223;51.816;5.862;2022-11-15T03:20:59;5.40;;;3.28;;
64789;SDS011;51223;51.816;5.862;2022-11-15T03:23:28;5.57;;;3.58;;
64789;SDS011;51223;51.816;5.862;2022-11-15T03:25:56;3.50;;;1.70;;
64789;SDS011;51223;51.816;5.862;2022-11-15T03:28:25;5.10;;;3.25;;
64789;SDS011;51223;51.816;5.862;2022-11-15T03:30:57;5.80;;;3.30;;
64789;SDS011;51223;51.816;5.862;2022-11-15T03:33:26;6.00;;;3.90;;
64789;SDS011;51223;51.816;5.862;2022-11-15T03:35:54;9.45;;;4.22;;
64789;SDS011;51223;51.816;5.862;2022-11-15T03:38:24;5.70;;;2.85;;
64789;SDS011;51223;51.816;5.862;2022-11-15T03:40:54;4.22;;;2.45;;
64789;SDS011;51223;51.816;5.862;2022-11-15T03:43:36;8.05;;;4.32;;
64789;SDS011;51223;51.816;5.862;2022-11-15T03:46:28;2.72;;;2.13;;
64789;SDS011;51223;51.816;5.862;2022-11-15T03:49:04;10.13;;;3.50;;
64789;SDS011;51223;51.816;5.862;2022-11-15T03:51:34;5.97;;;3.35;;
64789;SDS011;51223;51.816;5.862;2022-11-15T03:54:02;1.77;;;1.65;;
64789;SDS011;51223;51.816;5.862;2022-11-15T03:56:29;4.78;;;2.95;;
64789;SDS011;51223;51.816;5.862;2022-11-15T03:58:55;6.10;;;3.75;;
64789;SDS011;51223;51.816;5.862;2022-11-15T04:01:20;9.15;;;3.83;;
64789;SDS011;51223;51.816;5.862;2022-11-15T04:03:46;7.82;;;4.53;;
64789;SDS011;51223;51.816;5.862;2022-11-15T04:06:12;5.45;;;3.13;;
64789;SDS011;51223;51.816;5.862;2022-11-15T04:08:38;5.43;;;3.17;;
64789;SDS011;51223;51.816;5.862;2022-11-15T04:11:04;8.48;;;3.65;;
64789;SDS011;51223;51.816;5.862;2022-11-15T04:13:29;7.47;;;3.83;;
64789;SDS011;51223;51.816;5.862;2022-11-15T04:15:55;6.03;;;3.42;;
64789;SDS011;51223;51.816;5.862;2022-11-15T04:18:21;6.13;;;3.72;;
64789;SDS011;51223;51.816;5.862;2022-11-15T04:20:47;9.98;;;3.50;;
64789;SDS011;51223;51.816;5.862;2022-11-15T04:23:31;10.02;;;4.72;;
64789;SDS011;51223;51.816;5.862;2022-11-15T04:26:17;7.38;;;3.55;;
64789;SDS011;51223;51.816;5.862;2022-11-15T04:28:44;4.78;;;3.20;;
64789;SDS011;51223;51.816;5.862;2022-11-15T04:31:29;7.68;;;4.60;;
64789;SDS011;51223;51.816;5.862;2022-11-15T04:33:55;5.95;;;4.80;;
64789;SDS011;51223;51.816;5.862;2022-11-15T04:36:21;3.75;;;2.53;;
64789;SDS011;51223;51.816;5.862;2022-11-15T04:39:05;6.50;;;3.70;;
64789;SDS011;51223;51.816;5.862;2022-11-15T04:41:31;10.00;;;3.97;;
64789;SDS011;51223;51.816;5.862;2022-11-15T04:43:57;7.40;;;4.55;;
64789;SDS011;51223;51.816;5.862;2022-11-15T04:46:23;3.42;;;2.55;;
64789;SDS011;51223;51.816;5.862;2022-11-15T04:48:50;6.07;;;3.42;;
64789;SDS011;51223;51.816;5.862;2022-11-15T04:51:16;8.73;;;4.07;;
64789;SDS011;51223;51.816;5.862;2022-11-15T04:53:42;5.72;;;4.15;;
64789;SDS011;51223;51.816;5.862;2022-11-15T04:56:08;6.78;;;3.92;;
64789;SDS011;51223;51.816;5.862;2022-11-15T04:58:33;7.47;;;3.67;;
64789;SDS011;51223;51.816;5.862;2022-11-15T05:01:33;2.30;;;1.58;;
64789;SDS011;51223;51.816;5.862;2022-11-15T05:03:52;5.38;;;3.45;;
64789;SDS011;51223;51.816;5.862;2022-11-15T05:06:36;6.32;;;4.25;;
64789;SDS011;51223;51.816;5.862;2022-11-15T05:09:02;9.68;;;4.38;;
64789;SDS011;51223;51.816;5.862;2022-11-15T05:11:28;6.55;;;4.32;;
64789;SDS011;51223;51.816;5.862;2022-11-15T05:13:53;7.05;;;4.40;;
64789;SDS011;51223;51.816;5.862;2022-11-15T05:16:19;6.20;;;3.97;;
64789;SDS011;51223;51.816;5.862;2022-11-15T05:18:45;6.15;;;3.03;;
64789;SDS011;51223;51.816;5.862;2022-11-15T05:21:12;4.47;;;3.33;;
64789;SDS011;51223;51.816;5.862;2022-11-15T05:23:39;7.80;;;4.30;;
64789;SDS011;51223;51.816;5.862;2022-11-15T05:26:06;11.23;;;4.68;;
64789;SDS011;51223;51.816;5.862;2022-11-15T05:28:33;4.85;;;3.58;;
64789;SDS011;51223;51.816;5.862;2022-11-15T05:31:03;9.90;;;3.85;;
64789;SDS011;51223;51.816;5.862;2022-11-15T05:33:29;9.93;;;4.30;;
64789;SDS011;51223;51.816;5.862;2022-11-15T05:35:57;10.52;;;4.57;;
64789;SDS011;51223;51.816;5.862;2022-11-15T05:38:43;5.88;;;3.70;;
64789;SDS011;51223;51.816;5.862;2022-11-15T05:41:10;3.83;;;3.10;;
64789;SDS011;51223;51.816;5.862;2022-11-15T05:43:37;7.20;;;3.17;;
64789;SDS011;51223;51.816;5.862;2022-11-15T05:46:06;5.90;;;4.32;;
64789;SDS011;51223;51.816;5.862;2022-11-15T05:48:33;8.98;;;4.55;;
64789;SDS011;51223;51.816;5.862;2022-11-15T05:51:00;2.88;;;2.45;;
64789;SDS011;51223;51.816;5.862;2022-11-15T05:53:26;4.78;;;2.75;;
64789;SDS011;51223;51.816;5.862;2022-11-15T05:55:52;8.48;;;4.30;;
64789;SDS011;51223;51.816;5.862;2022-11-15T05:58:18;6.30;;;2.47;;
64789;SDS011;51223;51.816;5.862;2022-11-15T06:00:45;5.38;;;3.53;;
64789;SDS011;51223;51.816;5.862;2022-11-15T06:03:11;5.50;;;3.00;;
64789;SDS011;51223;51.816;5.862;2022-11-15T06:05:39;6.97;;;3.78;;
64789;SDS011;51223;51.816;5.862;2022-11-15T06:08:05;3.03;;;2.20;;
64789;SDS011;51223;51.816;5.862;2022-11-15T06:10:32;3.83;;;2.58;;
64789;SDS011;51223;51.816;5.862;2022-11-15T06:12:58;5.97;;;3.72;;
64789;SDS011;51223;51.816;5.862;2022-11-15T06:15:28;5.90;;;3.97;;
64789;SDS011;51223;51.816;5.862;2022-11-15T06:17:57;1.80;;;1.52;;
64789;SDS011;51223;51.816;5.862;2022-11-15T06:20:24;7.18;;;3.00;;
64789;SDS011;51223;51.816;5.862;2022-11-15T06:22:50;5.10;;;2.90;;
64789;SDS011;51223;51.816;5.862;2022-11-15T06:25:16;6.47;;;3.13;;
64789;SDS011;51223;51.816;5.862;2022-11-15T06:27:42;6.55;;;2.65;;
64789;SDS011;51223;51.816;5.862;2022-11-15T06:30:08;5.03;;;3.00;;
64789;SDS011;51223;51.816;5.862;2022-11-15T06:32:34;3.92;;;2.35;;
64789;SDS011;51223;51.816;5.862;2022-11-15T06:35:00;6.47;;;2.97;;
64789;SDS011;51223;51.816;5.862;2022-11-15T06:37:26;4.22;;;2.83;;
64789;SDS011;51223;51.816;5.862;2022-11-15T06:39:51;4.07;;;2.78;;
64789;SDS011;51223;51.816;5.862;2022-11-15T06:42:17;5.75;;;2.90;;
64789;SDS011;51223;51.816;5.862;2022-11-15T06:44:43;2.83;;;1.83;;
64789;SDS011;51223;51.816;5.862;2022-11-15T06:47:09;3.55;;;2.97;;
64789;SDS011;51223;51.816;5.862;2022-11-15T06:49:35;4.43;;;2.60;;
64789;SDS011;51223;51.816;5.862;2022-11-15T06:52:00;2.90;;;2.22;;
64789;SDS011;51223;51.816;5.862;2022-11-15T06:54:26;6.65;;;2.47;;
64789;SDS011;51223;51.816;5.862;2022-11-15T06:56:52;7.82;;;2.95;;
64789;SDS011;51223;51.816;5.862;2022-11-15T06:59:18;6.15;;;3.30;;
64789;SDS011;51223;51.816;5.862;2022-11-15T07:01:44;3.83;;;2.55;;
64789;SDS011;51223;51.816;5.862;2022-11-15T07:04:09;4.32;;;2.80;;
64789;SDS011;51223;51.816;5.862;2022-11-15T07:06:35;2.45;;;2.05;;
64789;SDS011;51223;51.816;5.862;2022-11-15T07:09:02;5.97;;;3.40;;
64789;SDS011;51223;51.816;5.862;2022-11-15T07:11:28;5.50;;;2.40;;
64789;SDS011;51223;51.816;5.862;2022-11-15T07:13:54;4.30;;;3.25;;
64789;SDS011;51223;51.816;5.862;2022-11-15T07:16:20;6.80;;;3.03;;
64789;SDS011;51223;51.816;5.862;2022-11-15T07:18:46;2.42;;;2.22;;
64789;SDS011;51223;51.816;5.862;2022-11-15T07:21:11;3.00;;;2.33;;
64789;SDS011;51223;51.816;5.862;2022-11-15T07:23:38;4.35;;;1.83;;
64789;SDS011;51223;51.816;5.862;2022-11-15T07:26:04;8.00;;;3.03;;
64789;SDS011;51223;51.816;5.862;2022-11-15T07:28:31;3.67;;;2.28;;
64789;SDS011;51223;51.816;5.862;2022-11-15T07:30:56;5.22;;;2.28;;
64789;SDS011;51223;51.816;5.862;2022-11-15T07:33:22;4.60;;;2.53;;
64789;SDS011;51223;51.816;5.862;2022-11-15T07:35:48;4.70;;;2.65;;
64789;SDS011;51223;51.816;5.862;2022-11-15T07:38:14;3.03;;;2.05;;
64789;SDS011;51223;51.816;5.862;2022-11-15T07:40:41;1.85;;;1.60;;
64789;SDS011;51223;51.816;5.862;2022-11-15T07:43:07;3.97;;;2.63;;
64789;SDS011;51223;51.816;5.862;2022-11-15T07:45:33;4.90;;;2.83;;
64789;SDS011;51223;51.816;5.862;2022-11-15T07:48:05;3.92;;;2.90;;
64789;SDS011;51223;51.816;5.862;2022-11-15T07:50:31;3.13;;;1.92;;
64789;SDS011;51223;51.816;5.862;2022-11-15T07:52:58;7.22;;;2.28;;
64789;SDS011;51223;51.816;5.862;2022-11-15T07:55:25;3.40;;;2.28;;
64789;SDS011;51223;51.816;5.862;2022-11-15T07:57:53;3.30;;;2.33;;
64789;SDS011;51223;51.816;5.862;2022-11-15T08:00:25;4.22;;;2.60;;
64789;SDS011;51223;51.816;5.862;2022-11-15T08:02:51;3.25;;;2.30;;
64789;SDS011;51223;51.816;5.862;2022-11-15T08:05:17;6.65;;;1.63;;
64789;SDS011;51223;51.816;5.862;2022-11-15T08:07:43;5.95;;;2.38;;
64789;SDS011;51223;51.816;5.862;2022-11-15T08:10:09;4.93;;;2.38;;
64789;SDS011;51223;51.816;5.862;2022-11-15T08:12:35;5.60;;;3.20;;
64789;SDS011;51223;51.816;5.862;2022-11-15T08:15:00;4.05;;;2.63;;
64789;SDS011;51223;51.816;5.862;2022-11-15T08:17:26;6.15;;;2.28;;
64789;SDS011;51223;51.816;5.862;2022-11-15T08:19:52;3.63;;;2.20;;
64789;SDS011;51223;51.816;5.862;2022-11-15T08:22:18;5.07;;;2.63;;
64789;SDS011;51223;51.816;5.862;2022-11-15T08:24:44;2.15;;;1.73;;
64789;SDS011;51223;51.816;5.862;2022-11-15T08:27:10;4.32;;;2.55;;
64789;SDS011;51223;51.816;5.862;2022-11-15T08:29:42;3.85;;;2.28;;
64789;SDS011;51223;51.816;5.862;2022-11-15T08:32:09;3.38;;;2.28;;
64789;SDS011;51223;51.816;5.862;2022-11-15T08:34:36;3.03;;;2.10;;
64789;SDS011;51223;51.816;5.862;2022-11-15T08:37:03;3.60;;;2.88;;
64789;SDS011;51223;51.816;5.862;2022-11-15T08:39:29;2.20;;;1.42;;
64789;SDS011;51223;51.816;5.862;2022-11-15T08:41:55;1.55;;;1.30;;
64789;SDS011;51223;51.816;5.862;2022-11-15T08:44:21;5.15;;;2.35;;
64789;SDS011;51223;51.816;5.862;2022-11-15T08:46:47;5.30;;;2.33;;
64789;SDS011;51223;51.816;5.862;2022-11-15T08:49:13;4.68;;;2.92;;
64789;SDS011;51223;51.816;5.862;2022-11-15T08:51:39;2.80;;;2.17;;
64789;SDS011;51223;51.816;5.862;2022-11-15T08:54:04;4.15;;;1.77;;
64789;SDS011;51223;51.816;5.862;2022-11-15T08:56:30;3.05;;;2.00;;
64789;SDS011;51223;51.816;5.862;2022-11-15T08:58:56;3.75;;;1.85;;
64789;SDS011;51223;51.816;5.862;2022-11-15T09:01:22;3.30;;;1.98;;
64789;SDS011;51223;51.816;5.862;2022-11-15T09:03:48;3.10;;;1.83;;
64789;SDS011;51223;51.816;5.862;2022-11-15T09:06:14;1.92;;;1.45;;
64789;SDS011;51223;51.816;5.862;2022-11-15T09:08:40;4.10;;;2.70;;
64789;SDS011;51223;51.816;5.862;2022-11-15T09:11:06;2.92;;;2.03;;
64789;SDS011;51223;51.816;5.862;2022-11-15T09:13:33;4.40;;;2.70;;
64789;SDS011;51223;51.816;5.862;2022-11-15T09:15:59;2.50;;;1.75;;
64789;SDS011;51223;51.816;5.862;2022-11-15T09:18:26;3.42;;;2.30;;
64789;SDS011;51223;51.816;5.862;2022-11-15T09:20:55;4.95;;;2.00;;
64789;SDS011;51223;51.816;5.862;2022-11-15T09:23:24;2.58;;;1.77;;
64789;SDS011;51223;51.816;5.862;2022-11-15T09:25:51;8.73;;;1.92;;
64789;SDS011;51223;51.816;5.862;2022-11-15T09:28:17;1.92;;;1.40;;
64789;SDS011;51223;51.816;5.862;2022-11-15T09:30:43;1.92;;;1.65;;
64789;SDS011;51223;51.816;5.862;2022-11-15T09:33:10;2.45;;;1.67;;
64789;SDS011;51223;51.816;5.862;2022-11-15T09:35:37;3.83;;;1.58;;
64789;SDS011;51223;51.816;5.862;2022-11-15T09:38:03;3.72;;;1.38;;
64789;SDS011;51223;51.816;5.862;2022-11-15T09:40:32;1.17;;;1.02;;
64789;SDS011;51223;51.816;5.862;2022-11-15T09:43:07;7.38;;;2.33;;
64789;SDS011;51223;51.816;5.862;2022-11-15T09:45:54;3.40;;;2.08;;
64789;SDS011;51223;51.816;5.862;2022-11-15T09:48:33;2.22;;;1.50;;
64789;SDS011;51223;51.816;5.862;2022-11-15T09:51:09;1.77;;;1.30;;
64789;SDS011;51223;51.816;5.862;2022-11-15T09:53:48;5.22;;;1.67;;
64789;SDS011;51223;51.816;5.862;2022-11-15T09:56:21;1.52;;;1.38;;
64789;SDS011;51223;51.816;5.862;2022-11-15T09:58:54;2.33;;;1.60;;
64789;SDS011;51223;51.816;5.862;2022-11-15T10:01:34;0.32;;;0.13;;
64789;SDS011;51223;51.816;5.862;2022-11-15T10:04:01;2.10;;;1.02;;
64789;SDS011;51223;51.816;5.862;2022-11-15T10:06:27;1.88;;;1.35;;
64789;SDS011;51223;51.816;5.862;2022-11-15T10:08:55;2.38;;;1.15;;
64789;SDS011;51223;51.816;5.862;2022-11-15T10:11:34;1.67;;;1.55;;
64789;SDS011;51223;51.816;5.862;2022-11-15T10:14:02;1.25;;;1.02;;
64789;SDS011;51223;51.816;5.862;2022-11-15T10:22:45;4.55;;;0.88;;
64789;SDS011;51223;51.816;5.862;2022-11-15T10:25:19;0.38;;;0.38;;
64789;SDS011;51223;51.816;5.862;2022-11-15T10:27:53;1.90;;;1.17;;
64789;SDS011;51223;51.816;5.862;2022-11-15T10:30:21;0.70;;;0.70;;
64789;SDS011;51223;51.816;5.862;2022-11-15T10:32:47;1.77;;;0.47;;
64789;SDS011;51223;51.816;5.862;2022-11-15T10:35:19;9.68;;;1.00;;
64789;SDS011;51223;51.816;5.862;2022-11-15T10:37:47;1.27;;;0.60;;
64789;SDS011;51223;51.816;5.862;2022-11-15T10:40:23;0.45;;;0.45;;
64789;SDS011;51223;51.816;5.862;2022-11-15T10:45:40;0.60;;;0.60;;
64789;SDS011;51223;51.816;5.862;2022-11-15T10:50:37;1.92;;;0.73;;
64789;SDS011;51223;51.816;5.862;2022-11-15T10:53:10;3.03;;;0.90;;
64789;SDS011;51223;51.816;5.862;2022-11-15T10:55:46;0.43;;;0.40;;
64789;SDS011;51223;51.816;5.862;2022-11-15T10:58:33;0.45;;;0.38;;
64789;SDS011;51223;51.816;5.862;2022-11-15T11:01:08;0.50;;;0.40;;
64789;SDS011;51223;51.816;5.862;2022-11-15T11:03:36;0.30;;;0.30;;
64789;SDS011;51223;51.816;5.862;2022-11-15T11:06:05;0.63;;;0.50;;
64789;SDS011;51223;51.816;5.862;2022-11-15T11:08:34;0.75;;;0.52;;
64789;SDS011;51223;51.816;5.862;2022-11-15T11:11:00;2.58;;;0.80;;
64789;SDS011;51223;51.816;5.862;2022-11-15T11:18:56;2.15;;;0.60;;
64789;SDS011;51223;51.816;5.862;2022-11-15T11:24:30;0.57;;;0.43;;
64789;SDS011;51223;51.816;5.862;2022-11-15T11:27:07;0.43;;;0.43;;
64789;SDS011;51223;51.816;5.862;2022-11-15T11:32:36;1.47;;;0.70;;
64789;SDS011;51223;51.816;5.862;2022-11-15T11:35:14;0.77;;;0.50;;
64789;SDS011;51223;51.816;5.862;2022-11-15T11:37:56;0.75;;;0.60;;
64789;SDS011;51223;51.816;5.862;2022-11-15T11:43:18;1.15;;;0.60;;
64789;SDS011;51223;51.816;5.862;2022-11-15T11:48:40;0.43;;;0.43;;
64789;SDS011;51223;51.816;5.862;2022-11-15T11:51:11;0.90;;;0.30;;
64789;SDS011;51223;51.816;5.862;2022-11-15T11:53:46;0.20;;;0.20;;
64789;SDS011;51223;51.816;5.862;2022-11-15T11:56:27;0.20;;;0.20;;
64789;SDS011;51223;51.816;5.862;2022-11-15T11:59:00;5.82;;;0.82;;
64789;SDS011;51223;51.816;5.862;2022-11-15T12:01:35;0.08;;;0.08;;
64789;SDS011;51223;51.816;5.862;2022-11-15T12:04:25;1.60;;;0.50;;
64789;SDS011;51223;51.816;5.862;2022-11-15T12:06:59;0.30;;;0.30;;
64789;SDS011;51223;51.816;5.862;2022-11-15T12:12:27;0.28;;;0.08;;
64789;SDS011;51223;51.816;5.862;2022-11-15T12:17:33;4.90;;;1.23;;
64789;SDS011;51223;51.816;5.862;2022-11-15T12:20:02;0.22;;;0.20;;
64789;SDS011;51223;51.816;5.862;2022-11-15T12:22:53;1.20;;;0.43;;
64789;SDS011;51223;51.816;5.862;2022-11-15T12:25:21;1.35;;;0.55;;
64789;SDS011;51223;51.816;5.862;2022-11-15T12:27:56;1.30;;;0.95;;
64789;SDS011;51223;51.816;5.862;2022-11-15T12:30:38;0.30;;;0.30;;
64789;SDS011;51223;51.816;5.862;2022-11-15T12:33:28;1.27;;;0.60;;
64789;SDS011;51223;51.816;5.862;2022-11-15T12:36:02;0.68;;;0.50;;
64789;SDS011;51223;51.816;5.862;2022-11-15T12:39:16;0.30;;;0.30;;
64789;SDS011;51223;51.816;5.862;2022-11-15T12:41:19;0.50;;;0.47;;
64789;SDS011;51223;51.816;5.862;2022-11-15T12:43:47;0.32;;;0.30;;
64789;SDS011;51223;51.816;5.862;2022-11-15T12:48:55;0.30;;;0.30;;
64789;SDS011;51223;51.816;5.862;2022-11-15T13:18:28;2.40;;;0.45;;
64789;SDS011;51223;51.816;5.862;2022-11-15T13:20:59;0.05;;;0.05;;
64789;SDS011;51223;51.816;5.862;2022-11-15T13:23:26;1.13;;;0.50;;
64789;SDS011;51223;51.816;5.862;2022-11-15T13:25:57;0.40;;;0.38;;
64789;SDS011;51223;51.816;5.862;2022-11-15T13:31:14;0.30;;;0.30;;
64789;SDS011;51223;51.816;5.862;2022-11-15T13:33:43;0.93;;;0.13;;
64789;SDS011;51223;51.816;5.862;2022-11-15T13:36:13;1.65;;;0.40;;
64789;SDS011;51223;51.816;5.862;2022-11-15T13:38:44;0.50;;;0.50;;
64789;SDS011;51223;51.816;5.862;2022-11-15T13:43:41;1.40;;;0.95;;
64789;SDS011;51223;51.816;5.862;2022-11-15T13:46:16;2.97;;;0.40;;
64789;SDS011;51223;51.816;5.862;2022-11-15T13:48:44;0.75;;;0.30;;
64789;SDS011;51223;51.816;5.862;2022-11-15T13:51:16;0.15;;;0.15;;
64789;SDS011;51223;51.816;5.862;2022-11-15T13:53:48;0.38;;;0.38;;
64789;SDS011;51223;51.816;5.862;2022-11-15T13:56:18;0.68;;;0.35;;
64789;SDS011;51223;51.816;5.862;2022-11-15T13:58:46;0.57;;;0.20;;
64789;SDS011;51223;51.816;5.862;2022-11-15T14:01:14;0.10;;;0.10;;
64789;SDS011;51223;51.816;5.862;2022-11-15T14:06:22;1.33;;;0.40;;
64789;SDS011;51223;51.816;5.862;2022-11-15T14:11:27;1.35;;;0.22;;
64789;SDS011;51223;51.816;5.862;2022-11-15T14:14:27;0.63;;;0.32;;
64789;SDS011;51223;51.816;5.862;2022-11-15T14:16:47;0.40;;;0.20;;
64789;SDS011;51223;51.816;5.862;2022-11-15T14:24:34;1.40;;;0.80;;
64789;SDS011;51223;51.816;5.862;2022-11-15T14:30:02;0.28;;;0.20;;
64789;SDS011;51223;51.816;5.862;2022-11-15T14:32:29;4.20;;;0.20;;
64789;SDS011;51223;51.816;5.862;2022-11-15T14:35:11;0.30;;;0.30;;
64789;SDS011;51223;51.816;5.862;2022-11-15T14:37:43;4.78;;;0.60;;
64789;SDS011;51223;51.816;5.862;2022-11-15T14:40:11;0.52;;;0.20;;
64789;SDS011;51223;51.816;5.862;2022-11-15T14:42:39;0.60;;;0.60;;
64789;SDS011;51223;51.816;5.862;2022-11-15T14:47:43;0.40;;;0.30;;
64789;SDS011;51223;51.816;5.862;2022-11-15T14:50:13;1.17;;;0.47;;
64789;SDS011;51223;51.816;5.862;2022-11-15T14:52:40;1.20;;;0.77;;
64789;SDS011;51223;51.816;5.862;2022-11-15T14:57:44;0.25;;;0.13;;
64789;SDS011;51223;51.816;5.862;2022-11-15T15:00:11;1.00;;;0.45;;
64789;SDS011;51223;51.816;5.862;2022-11-15T15:02:37;0.38;;;0.28;;
64789;SDS011;51223;51.816;5.862;2022-11-15T15:05:19;0.17;;;0.17;;
64789;SDS011;51223;51.816;5.862;2022-11-15T15:07:50;0.60;;;0.52;;
64789;SDS011;51223;51.816;5.862;2022-11-15T15:10:19;0.32;;;0.30;;
64789;SDS011;51223;51.816;5.862;2022-11-15T15:12:45;0.50;;;0.50;;
64789;SDS011;51223;51.816;5.862;2022-11-15T15:15:15;0.40;;;0.25;;
64789;SDS011;51223;51.816;5.862;2022-11-15T15:17:43;0.95;;;0.40;;
64789;SDS011;51223;51.816;5.862;2022-11-15T15:20:09;2.10;;;0.88;;
64789;SDS011;51223;51.816;5.862;2022-11-15T15:22:35;0.43;;;0.22;;
64789;SDS011;51223;51.816;5.862;2022-11-15T15:25:02;0.52;;;0.50;;
64789;SDS011;51223;51.816;5.862;2022-11-15T15:27:29;1.52;;;0.68;;
64789;SDS011;51223;51.816;5.862;2022-11-15T15:29:55;1.23;;;0.80;;
64789;SDS011;51223;51.816;5.862;2022-11-15T15:32:21;1.38;;;0.60;;
64789;SDS011;51223;51.816;5.862;2022-11-15T15:34:47;0.63;;;0.60;;
64789;SDS011;51223;51.816;5.862;2022-11-15T15:37:21;0.40;;;0.25;;
64789;SDS011;51223;51.816;5.862;2022-11-15T15:39:53;2.15;;;0.65;;
64789;SDS011;51223;51.816;5.862;2022-11-15T15:42:20;2.45;;;0.80;;
64789;SDS011;51223;51.816;5.862;2022-11-15T15:44:47;0.82;;;0.65;;
64789;SDS011;51223;51.816;5.862;2022-11-15T15:47:15;0.57;;;0.57;;
64789;SDS011;51223;51.816;5.862;2022-11-15T15:49:43;2.92;;;0.95;;
64789;SDS011;51223;51.816;5.862;2022-11-15T15:52:09;0.40;;;0.25;;
64789;SDS011;51223;51.816;5.862;2022-11-15T15:54:35;0.65;;;0.57;;
64789;SDS011;51223;51.816;5.862;2022-11-15T15:57:01;1.75;;;0.73;;
64789;SDS011;51223;51.816;5.862;2022-11-15T15:59:27;5.53;;;0.85;;
64789;SDS011;51223;51.816;5.862;2022-11-15T16:01:53;1.08;;;0.65;;
64789;SDS011;51223;51.816;5.862;2022-11-15T16:04:18;3.75;;;0.50;;
64789;SDS011;51223;51.816;5.862;2022-11-15T16:06:44;0.55;;;0.43;;
64789;SDS011;51223;51.816;5.862;2022-11-15T16:09:14;1.45;;;0.45;;
64789;SDS011;51223;51.816;5.862;2022-11-15T16:11:44;1.80;;;0.98;;
64789;SDS011;51223;51.816;5.862;2022-11-15T16:14:11;2.65;;;0.95;;
64789;SDS011;51223;51.816;5.862;2022-11-15T16:16:37;0.50;;;0.50;;
64789;SDS011;51223;51.816;5.862;2022-11-15T16:19:03;0.40;;;0.40;;
64789;SDS011;51223;51.816;5.862;2022-11-15T16:21:29;0.65;;;0.45;;
64789;SDS011;51223;51.816;5.862;2022-11-15T16:23:55;0.65;;;0.57;;
64789;SDS011;51223;51.816;5.862;2022-11-15T16:26:23;0.95;;;0.50;;
64789;SDS011;51223;51.816;5.862;2022-11-15T16:28:51;0.30;;;0.30;;
64789;SDS011;51223;51.816;5.862;2022-11-15T16:31:17;0.60;;;0.55;;
64789;SDS011;51223;51.816;5.862;2022-11-15T16:33:45;1.35;;;0.68;;
64789;SDS011;51223;51.816;5.862;2022-11-15T16:36:19;0.22;;;0.22;;
64789;SDS011;51223;51.816;5.862;2022-11-15T16:38:49;0.20;;;0.20;;
64789;SDS011;51223;51.816;5.862;2022-11-15T16:41:15;1.10;;;0.80;;
64789;SDS011;51223;51.816;5.862;2022-11-15T16:43:46;2.70;;;0.77;;
64789;SDS011;51223;51.816;5.862;2022-11-15T16:46:15;0.57;;;0.57;;
64789;SDS011;51223;51.816;5.862;2022-11-15T16:48:43;1.17;;;0.63;;
64789;SDS011;51223;51.816;5.862;2022-11-15T16:51:10;1.85;;;0.90;;